sensor_id;sensor_type;location;lat;lon;timestamp;P1;durP1;ratioP1;P2;durP2;ratioP2
70122;SDS011;57489;37.404;24.920;2023-07-20T00:04:39;8.17;;;5.00;;
70122;SDS011;57489;37.404;24.920;2023-07-20T00:09:40;8.60;;;4.07;;
70122;SDS011;57489;37.404;24.920;2023-07-20T00:14:41;7.97;;;4.60;;
70122;SDS011;57489;37.404;24.920;2023-07-20T00:19:41;7.30;;;4.13;;
70122;SDS011;57489;37.404;24.920;2023-07-20T00:24:42;8.03;;;3.80;;
70122;SDS011;57489;37.404;24.920;2023-07-20T00:29:42;11.30;;;4.73;;
70122;SDS011;57489;37.404;24.920;2023-07-20T00:34:42;9.60;;;4.60;;
70122;SDS011;57489;37.404;24.920;2023-07-20T00:39:43;7.57;;;4.70;;
70122;SDS011;57489;37.404;24.920;2023-07-20T00:44:43;7.23;;;3.80;;
70122;SDS011;57489;37.404;24.920;2023-07-20T00:49:44;7.50;;;4.40;;
70122;SDS011;57489;37.404;24.920;2023-07-20T00:54:44;9.57;;;4.70;;
70122;SDS011;57489;37.404;24.920;2023-07-20T00:59:45;8.23;;;4.13;;
70122;SDS011;57489;37.404;24.920;2023-07-20T01:04:45;9.13;;;4.60;;
70122;SDS011;57489;37.404;24.920;2023-07-20T01:09:52;7.67;;;3.70;;
70122;SDS011;57489;37.404;24.920;2023-07-20T01:14:56;6.95;;;3.60;;
70122;SDS011;57489;37.404;24.920;2023-07-20T01:19:57;11.13;;;3.83;;
70122;SDS011;57489;37.404;24.920;2023-07-20T01:25:06;6.60;;;4.00;;
70122;SDS011;57489;37.404;24.920;2023-07-20T01:35:42;7.17;;;3.77;;
70122;SDS011;57489;37.404;24.920;2023-07-20T01:40:45;6.80;;;3.58;;
70122;SDS011;57489;37.404;24.920;2023-07-20T01:45:45;6.70;;;3.63;;
70122;SDS011;57489;37.404;24.920;2023-07-20T01:50:46;8.33;;;3.47;;
70122;SDS011;57489;37.404;24.920;2023-07-20T01:55:46;7.37;;;3.40;;
70122;SDS011;57489;37.404;24.920;2023-07-20T02:00:47;7.07;;;3.73;;
70122;SDS011;57489;37.404;24.920;2023-07-20T02:05:47;7.20;;;3.60;;
70122;SDS011;57489;37.404;24.920;2023-07-20T02:10:48;7.23;;;3.80;;
70122;SDS011;57489;37.404;24.920;2023-07-20T02:15:49;7.40;;;3.88;;
70122;SDS011;57489;37.404;24.920;2023-07-20T02:20:49;8.17;;;4.07;;
70122;SDS011;57489;37.404;24.920;2023-07-20T02:25:52;6.57;;;3.58;;
70122;SDS011;57489;37.404;24.920;2023-07-20T02:30:52;7.77;;;3.37;;
70122;SDS011;57489;37.404;24.920;2023-07-20T02:35:53;9.97;;;4.33;;
70122;SDS011;57489;37.404;24.920;2023-07-20T02:40:53;6.33;;;3.50;;
70122;SDS011;57489;37.404;24.920;2023-07-20T02:45:54;7.43;;;3.83;;
70122;SDS011;57489;37.404;24.920;2023-07-20T02:50:54;7.63;;;3.80;;
70122;SDS011;57489;37.404;24.920;2023-07-20T02:55:55;9.53;;;3.80;;
70122;SDS011;57489;37.404;24.920;2023-07-20T03:00:55;7.70;;;3.97;;
70122;SDS011;57489;37.404;24.920;2023-07-20T03:05:55;7.77;;;3.97;;
70122;SDS011;57489;37.404;24.920;2023-07-20T03:10:56;8.68;;;3.45;;
70122;SDS011;57489;37.404;24.920;2023-07-20T03:15:56;8.53;;;3.87;;
70122;SDS011;57489;37.404;24.920;2023-07-20T03:20:57;8.97;;;3.30;;
70122;SDS011;57489;37.404;24.920;2023-07-20T03:25:57;8.07;;;4.10;;
70122;SDS011;57489;37.404;24.920;2023-07-20T03:30:58;6.03;;;3.20;;
70122;SDS011;57489;37.404;24.920;2023-07-20T03:35:58;6.83;;;3.43;;
70122;SDS011;57489;37.404;24.920;2023-07-20T03:40:59;7.90;;;3.83;;
70122;SDS011;57489;37.404;24.920;2023-07-20T03:46:00;10.50;;;3.88;;
70122;SDS011;57489;37.404;24.920;2023-07-20T03:51:01;8.07;;;3.30;;
70122;SDS011;57489;37.404;24.920;2023-07-20T03:56:01;6.40;;;3.10;;
70122;SDS011;57489;37.404;24.920;2023-07-20T04:01:02;5.70;;;3.27;;
70122;SDS011;57489;37.404;24.920;2023-07-20T04:06:02;6.65;;;3.10;;
70122;SDS011;57489;37.404;24.920;2023-07-20T04:11:03;6.30;;;3.10;;
70122;SDS011;57489;37.404;24.920;2023-07-20T04:16:03;9.57;;;3.80;;
70122;SDS011;57489;37.404;24.920;2023-07-20T04:21:04;7.87;;;3.70;;
70122;SDS011;57489;37.404;24.920;2023-07-20T04:26:04;8.48;;;3.58;;
70122;SDS011;57489;37.404;24.920;2023-07-20T04:31:12;6.70;;;3.43;;
70122;SDS011;57489;37.404;24.920;2023-07-20T04:36:13;5.80;;;3.00;;
70122;SDS011;57489;37.404;24.920;2023-07-20T04:41:14;8.83;;;3.47;;
70122;SDS011;57489;37.404;24.920;2023-07-20T04:46:14;7.95;;;3.85;;
70122;SDS011;57489;37.404;24.920;2023-07-20T04:51:14;9.30;;;3.80;;
70122;SDS011;57489;37.404;24.920;2023-07-20T04:56:15;7.90;;;4.00;;
70122;SDS011;57489;37.404;24.920;2023-07-20T05:01:15;7.53;;;3.40;;
70122;SDS011;57489;37.404;24.920;2023-07-20T05:06:16;7.50;;;3.80;;
70122;SDS011;57489;37.404;24.920;2023-07-20T05:11:16;6.47;;;3.40;;
70122;SDS011;57489;37.404;24.920;2023-07-20T05:16:17;5.93;;;3.20;;
70122;SDS011;57489;37.404;24.920;2023-07-20T05:21:17;8.47;;;3.90;;
70122;SDS011;57489;37.404;24.920;2023-07-20T05:26:18;6.70;;;3.30;;
70122;SDS011;57489;37.404;24.920;2023-07-20T05:31:18;6.63;;;3.20;;
70122;SDS011;57489;37.404;24.920;2023-07-20T05:36:18;6.60;;;3.27;;
70122;SDS011;57489;37.404;24.920;2023-07-20T05:41:19;8.37;;;3.50;;
70122;SDS011;57489;37.404;24.920;2023-07-20T05:46:19;13.13;;;3.60;;
70122;SDS011;57489;37.404;24.920;2023-07-20T05:51:20;6.83;;;3.37;;
70122;SDS011;57489;37.404;24.920;2023-07-20T05:56:20;6.33;;;3.03;;
70122;SDS011;57489;37.404;24.920;2023-07-20T06:01:21;6.73;;;3.10;;
70122;SDS011;57489;37.404;24.920;2023-07-20T06:06:21;7.93;;;3.20;;
70122;SDS011;57489;37.404;24.920;2023-07-20T06:11:22;12.47;;;3.80;;
70122;SDS011;57489;37.404;24.920;2023-07-20T06:16:22;7.53;;;3.27;;
70122;SDS011;57489;37.404;24.920;2023-07-20T06:21:23;9.73;;;3.47;;
70122;SDS011;57489;37.404;24.920;2023-07-20T06:26:23;6.50;;;3.40;;
70122;SDS011;57489;37.404;24.920;2023-07-20T06:31:23;7.60;;;3.57;;
70122;SDS011;57489;37.404;24.920;2023-07-20T06:36:24;5.87;;;3.10;;
70122;SDS011;57489;37.404;24.920;2023-07-20T06:41:24;8.47;;;3.53;;
70122;SDS011;57489;37.404;24.920;2023-07-20T06:46:25;6.40;;;3.23;;
70122;SDS011;57489;37.404;24.920;2023-07-20T06:51:26;7.65;;;3.70;;
70122;SDS011;57489;37.404;24.920;2023-07-20T06:56:26;7.13;;;3.60;;
70122;SDS011;57489;37.404;24.920;2023-07-20T07:01:27;8.40;;;3.70;;
70122;SDS011;57489;37.404;24.920;2023-07-20T07:06:28;7.27;;;3.50;;
70122;SDS011;57489;37.404;24.920;2023-07-20T07:11:29;7.38;;;3.13;;
70122;SDS011;57489;37.404;24.920;2023-07-20T07:16:29;7.90;;;3.70;;
70122;SDS011;57489;37.404;24.920;2023-07-20T07:21:30;7.63;;;3.27;;
70122;SDS011;57489;37.404;24.920;2023-07-20T07:26:30;6.63;;;3.50;;
70122;SDS011;57489;37.404;24.920;2023-07-20T07:31:34;9.60;;;4.13;;
70122;SDS011;57489;37.404;24.920;2023-07-20T07:36:36;7.33;;;3.20;;
70122;SDS011;57489;37.404;24.920;2023-07-20T07:41:37;8.63;;;4.10;;
70122;SDS011;57489;37.404;24.920;2023-07-20T07:46:37;6.53;;;3.37;;
70122;SDS011;57489;37.404;24.920;2023-07-20T07:51:38;9.02;;;3.38;;
70122;SDS011;57489;37.404;24.920;2023-07-20T07:56:38;6.00;;;3.13;;
70122;SDS011;57489;37.404;24.920;2023-07-20T08:01:39;6.37;;;3.30;;
70122;SDS011;57489;37.404;24.920;2023-07-20T08:06:40;6.63;;;4.10;;
70122;SDS011;57489;37.404;24.920;2023-07-20T08:11:40;7.30;;;3.33;;
70122;SDS011;57489;37.404;24.920;2023-07-20T08:16:41;7.53;;;3.93;;
70122;SDS011;57489;37.404;24.920;2023-07-20T08:21:41;9.03;;;3.67;;
70122;SDS011;57489;37.404;24.920;2023-07-20T08:26:41;10.20;;;3.90;;
70122;SDS011;57489;37.404;24.920;2023-07-20T08:31:42;11.73;;;4.07;;
70122;SDS011;57489;37.404;24.920;2023-07-20T08:36:42;7.47;;;4.10;;
70122;SDS011;57489;37.404;24.920;2023-07-20T08:41:43;8.27;;;4.13;;
70122;SDS011;57489;37.404;24.920;2023-07-20T08:46:44;8.20;;;3.43;;
70122;SDS011;57489;37.404;24.920;2023-07-20T08:51:47;6.65;;;3.45;;
70122;SDS011;57489;37.404;24.920;2023-07-20T08:56:49;5.90;;;3.17;;
70122;SDS011;57489;37.404;24.920;2023-07-20T09:01:51;7.63;;;3.70;;
70122;SDS011;57489;37.404;24.920;2023-07-20T09:06:52;7.80;;;3.33;;
70122;SDS011;57489;37.404;24.920;2023-07-20T09:11:53;6.73;;;3.07;;
70122;SDS011;57489;37.404;24.920;2023-07-20T09:16:53;7.23;;;2.93;;
70122;SDS011;57489;37.404;24.920;2023-07-20T09:21:55;6.03;;;3.45;;
70122;SDS011;57489;37.404;24.920;2023-07-20T09:26:55;6.87;;;3.20;;
70122;SDS011;57489;37.404;24.920;2023-07-20T09:31:59;8.67;;;2.93;;
70122;SDS011;57489;37.404;24.920;2023-07-20T09:37:01;6.88;;;3.40;;
70122;SDS011;57489;37.404;24.920;2023-07-20T09:42:01;7.63;;;3.73;;
70122;SDS011;57489;37.404;24.920;2023-07-20T09:47:03;7.93;;;3.60;;
70122;SDS011;57489;37.404;24.920;2023-07-20T09:52:03;7.78;;;3.55;;
70122;SDS011;57489;37.404;24.920;2023-07-20T09:57:06;6.80;;;3.50;;
70122;SDS011;57489;37.404;24.920;2023-07-20T10:02:10;6.87;;;3.47;;
70122;SDS011;57489;37.404;24.920;2023-07-20T10:07:21;6.68;;;3.17;;
70122;SDS011;57489;37.404;24.920;2023-07-20T10:12:22;6.38;;;3.17;;
70122;SDS011;57489;37.404;24.920;2023-07-20T10:17:25;6.60;;;3.53;;
70122;SDS011;57489;37.404;24.920;2023-07-20T10:22:26;6.90;;;3.20;;
70122;SDS011;57489;37.404;24.920;2023-07-20T10:27:30;8.15;;;3.00;;
70122;SDS011;57489;37.404;24.920;2023-07-20T10:32:31;6.20;;;3.40;;
70122;SDS011;57489;37.404;24.920;2023-07-20T10:37:48;5.40;;;2.90;;
70122;SDS011;57489;37.404;24.920;2023-07-20T10:42:51;7.67;;;3.50;;
70122;SDS011;57489;37.404;24.920;2023-07-20T10:47:56;7.15;;;3.28;;
70122;SDS011;57489;37.404;24.920;2023-07-20T10:53:12;7.03;;;3.60;;
70122;SDS011;57489;37.404;24.920;2023-07-20T10:58:17;7.30;;;3.22;;
70122;SDS011;57489;37.404;24.920;2023-07-20T11:03:26;13.40;;;3.53;;
70122;SDS011;57489;37.404;24.920;2023-07-20T11:08:40;6.97;;;3.50;;
70122;SDS011;57489;37.404;24.920;2023-07-20T11:13:53;5.38;;;3.03;;
70122;SDS011;57489;37.404;24.920;2023-07-20T11:19:00;6.10;;;3.07;;
70122;SDS011;57489;37.404;24.920;2023-07-20T11:24:05;8.38;;;3.70;;
70122;SDS011;57489;37.404;24.920;2023-07-20T11:29:06;6.57;;;3.55;;
70122;SDS011;57489;37.404;24.920;2023-07-20T11:34:09;6.70;;;3.33;;
70122;SDS011;57489;37.404;24.920;2023-07-20T11:39:12;6.47;;;3.90;;
70122;SDS011;57489;37.404;24.920;2023-07-20T11:44:13;4.83;;;2.80;;
70122;SDS011;57489;37.404;24.920;2023-07-20T11:49:15;6.53;;;3.20;;
70122;SDS011;57489;37.404;24.920;2023-07-20T11:54:15;6.30;;;3.03;;
70122;SDS011;57489;37.404;24.920;2023-07-20T11:59:18;5.72;;;3.13;;
70122;SDS011;57489;37.404;24.920;2023-07-20T12:04:18;7.13;;;3.25;;
70122;SDS011;57489;37.404;24.920;2023-07-20T12:09:19;7.70;;;2.60;;
70122;SDS011;57489;37.404;24.920;2023-07-20T12:14:20;5.90;;;3.43;;
70122;SDS011;57489;37.404;24.920;2023-07-20T12:19:20;7.27;;;3.50;;
70122;SDS011;57489;37.404;24.920;2023-07-20T12:24:21;6.47;;;2.83;;
70122;SDS011;57489;37.404;24.920;2023-07-20T12:29:21;5.87;;;3.27;;
70122;SDS011;57489;37.404;24.920;2023-07-20T12:34:22;5.37;;;3.13;;
70122;SDS011;57489;37.404;24.920;2023-07-20T12:39:22;6.50;;;2.70;;
70122;SDS011;57489;37.404;24.920;2023-07-20T12:44:23;7.37;;;2.67;;
70122;SDS011;57489;37.404;24.920;2023-07-20T12:49:23;4.83;;;2.60;;
70122;SDS011;57489;37.404;24.920;2023-07-20T12:54:24;5.57;;;2.70;;
70122;SDS011;57489;37.404;24.920;2023-07-20T12:59:24;5.67;;;2.63;;
70122;SDS011;57489;37.404;24.920;2023-07-20T13:04:25;4.70;;;2.27;;
70122;SDS011;57489;37.404;24.920;2023-07-20T13:09:25;5.13;;;2.90;;
70122;SDS011;57489;37.404;24.920;2023-07-20T13:14:26;5.10;;;2.40;;
70122;SDS011;57489;37.404;24.920;2023-07-20T13:19:26;6.40;;;2.47;;
70122;SDS011;57489;37.404;24.920;2023-07-20T13:24:27;9.93;;;4.00;;
70122;SDS011;57489;37.404;24.920;2023-07-20T13:29:27;7.73;;;3.07;;
70122;SDS011;57489;37.404;24.920;2023-07-20T13:34:28;8.18;;;2.85;;
70122;SDS011;57489;37.404;24.920;2023-07-20T13:39:29;6.37;;;2.80;;
70122;SDS011;57489;37.404;24.920;2023-07-20T13:44:34;6.78;;;2.80;;
70122;SDS011;57489;37.404;24.920;2023-07-20T13:49:34;7.37;;;2.70;;
70122;SDS011;57489;37.404;24.920;2023-07-20T13:54:35;6.20;;;2.75;;
70122;SDS011;57489;37.404;24.920;2023-07-20T13:59:36;8.47;;;2.83;;
70122;SDS011;57489;37.404;24.920;2023-07-20T14:04:36;7.33;;;3.00;;
70122;SDS011;57489;37.404;24.920;2023-07-20T14:09:37;6.13;;;2.43;;
70122;SDS011;57489;37.404;24.920;2023-07-20T14:14:37;9.95;;;2.60;;
70122;SDS011;57489;37.404;24.920;2023-07-20T14:19:38;6.13;;;2.90;;
70122;SDS011;57489;37.404;24.920;2023-07-20T14:24:38;5.43;;;2.47;;
70122;SDS011;57489;37.404;24.920;2023-07-20T14:29:39;6.47;;;2.67;;
70122;SDS011;57489;37.404;24.920;2023-07-20T14:34:39;7.07;;;2.30;;
70122;SDS011;57489;37.404;24.920;2023-07-20T14:39:40;7.23;;;2.83;;
70122;SDS011;57489;37.404;24.920;2023-07-20T14:44:40;7.70;;;3.40;;
70122;SDS011;57489;37.404;24.920;2023-07-20T14:49:41;10.00;;;3.57;;
70122;SDS011;57489;37.404;24.920;2023-07-20T14:54:41;26.00;;;6.57;;
70122;SDS011;57489;37.404;24.920;2023-07-20T14:59:42;24.50;;;6.27;;
70122;SDS011;57489;37.404;24.920;2023-07-20T15:04:46;28.57;;;7.67;;
70122;SDS011;57489;37.404;24.920;2023-07-20T15:09:47;22.75;;;6.95;;
70122;SDS011;57489;37.404;24.920;2023-07-20T15:14:49;23.13;;;7.40;;
70122;SDS011;57489;37.404;24.920;2023-07-20T15:20:06;21.83;;;6.18;;
70122;SDS011;57489;37.404;24.920;2023-07-20T15:25:10;22.03;;;5.93;;
70122;SDS011;57489;37.404;24.920;2023-07-20T15:30:11;20.13;;;5.85;;
70122;SDS011;57489;37.404;24.920;2023-07-20T15:35:12;17.30;;;5.77;;
70122;SDS011;57489;37.404;24.920;2023-07-20T15:40:13;18.77;;;5.57;;
70122;SDS011;57489;37.404;24.920;2023-07-20T15:45:13;19.97;;;5.90;;
70122;SDS011;57489;37.404;24.920;2023-07-20T15:50:14;13.83;;;4.57;;
70122;SDS011;57489;37.404;24.920;2023-07-20T15:55:14;13.20;;;5.10;;
70122;SDS011;57489;37.404;24.920;2023-07-20T16:00:15;15.65;;;5.07;;
70122;SDS011;57489;37.404;24.920;2023-07-20T16:05:16;28.17;;;7.33;;
70122;SDS011;57489;37.404;24.920;2023-07-20T16:10:16;49.03;;;12.30;;
70122;SDS011;57489;37.404;24.920;2023-07-20T16:15:17;37.97;;;10.85;;
70122;SDS011;57489;37.404;24.920;2023-07-20T16:20:17;32.67;;;10.50;;
70122;SDS011;57489;37.404;24.920;2023-07-20T16:25:18;33.53;;;11.03;;
70122;SDS011;57489;37.404;24.920;2023-07-20T16:30:18;34.27;;;11.03;;
70122;SDS011;57489;37.404;24.920;2023-07-20T16:35:19;33.83;;;10.80;;
70122;SDS011;57489;37.404;24.920;2023-07-20T16:40:19;26.77;;;8.93;;
70122;SDS011;57489;37.404;24.920;2023-07-20T16:45:20;27.88;;;9.63;;
70122;SDS011;57489;37.404;24.920;2023-07-20T16:50:21;28.70;;;9.30;;
70122;SDS011;57489;37.404;24.920;2023-07-20T16:55:22;24.03;;;8.43;;
70122;SDS011;57489;37.404;24.920;2023-07-20T17:00:23;26.37;;;9.17;;
70122;SDS011;57489;37.404;24.920;2023-07-20T17:05:23;20.70;;;8.20;;
70122;SDS011;57489;37.404;24.920;2023-07-20T17:10:24;25.97;;;9.30;;
70122;SDS011;57489;37.404;24.920;2023-07-20T17:15:24;18.00;;;7.57;;
70122;SDS011;57489;37.404;24.920;2023-07-20T17:20:25;23.83;;;8.63;;
70122;SDS011;57489;37.404;24.920;2023-07-20T17:25:25;20.55;;;6.70;;
70122;SDS011;57489;37.404;24.920;2023-07-20T17:30:26;20.07;;;7.60;;
70122;SDS011;57489;37.404;24.920;2023-07-20T17:35:27;15.90;;;7.37;;
70122;SDS011;57489;37.404;24.920;2023-07-20T17:40:27;15.60;;;6.33;;
70122;SDS011;57489;37.404;24.920;2023-07-20T17:45:28;13.07;;;5.57;;
70122;SDS011;57489;37.404;24.920;2023-07-20T17:50:28;10.30;;;4.30;;
70122;SDS011;57489;37.404;24.920;2023-07-20T17:55:29;12.23;;;4.53;;
70122;SDS011;57489;37.404;24.920;2023-07-20T18:00:29;9.20;;;4.53;;
70122;SDS011;57489;37.404;24.920;2023-07-20T18:05:31;9.95;;;4.45;;
70122;SDS011;57489;37.404;24.920;2023-07-20T18:10:31;9.30;;;4.53;;
70122;SDS011;57489;37.404;24.920;2023-07-20T18:15:32;7.10;;;4.20;;
70122;SDS011;57489;37.404;24.920;2023-07-20T18:20:33;10.90;;;3.87;;
70122;SDS011;57489;37.404;24.920;2023-07-20T18:25:34;9.50;;;4.00;;
70122;SDS011;57489;37.404;24.920;2023-07-20T18:30:34;7.30;;;3.87;;
70122;SDS011;57489;37.404;24.920;2023-07-20T18:35:35;8.40;;;3.80;;
70122;SDS011;57489;37.404;24.920;2023-07-20T18:40:35;6.18;;;3.28;;
70122;SDS011;57489;37.404;24.920;2023-07-20T18:45:36;6.83;;;3.30;;
70122;SDS011;57489;37.404;24.920;2023-07-20T18:50:36;8.33;;;3.20;;
70122;SDS011;57489;37.404;24.920;2023-07-20T18:55:37;8.07;;;3.90;;
70122;SDS011;57489;37.404;24.920;2023-07-20T19:00:38;8.53;;;3.80;;
70122;SDS011;57489;37.404;24.920;2023-07-20T19:05:38;8.00;;;3.92;;
70122;SDS011;57489;37.404;24.920;2023-07-20T19:10:40;7.93;;;3.50;;
70122;SDS011;57489;37.404;24.920;2023-07-20T19:15:46;8.83;;;3.53;;
70122;SDS011;57489;37.404;24.920;2023-07-20T19:20:47;7.17;;;3.70;;
70122;SDS011;57489;37.404;24.920;2023-07-20T19:25:48;8.77;;;3.63;;
70122;SDS011;57489;37.404;24.920;2023-07-20T19:30:49;15.05;;;8.98;;
70122;SDS011;57489;37.404;24.920;2023-07-20T19:35:49;19.13;;;13.17;;
70122;SDS011;57489;37.404;24.920;2023-07-20T19:40:50;19.70;;;12.90;;
70122;SDS011;57489;37.404;24.920;2023-07-20T19:45:51;27.90;;;15.27;;
70122;SDS011;57489;37.404;24.920;2023-07-20T19:50:52;16.97;;;11.70;;
70122;SDS011;57489;37.404;24.920;2023-07-20T19:55:59;19.70;;;12.70;;
70122;SDS011;57489;37.404;24.920;2023-07-20T20:01:00;34.28;;;24.00;;
70122;SDS011;57489;37.404;24.920;2023-07-20T20:06:01;41.13;;;26.17;;
70122;SDS011;57489;37.404;24.920;2023-07-20T20:11:01;38.40;;;25.40;;
70122;SDS011;57489;37.404;24.920;2023-07-20T20:16:03;30.03;;;19.57;;
70122;SDS011;57489;37.404;24.920;2023-07-20T20:21:04;20.45;;;13.80;;
70122;SDS011;57489;37.404;24.920;2023-07-20T20:26:04;13.63;;;9.17;;
70122;SDS011;57489;37.404;24.920;2023-07-20T20:31:05;15.30;;;9.85;;
70122;SDS011;57489;37.404;24.920;2023-07-20T20:36:06;13.73;;;8.20;;
70122;SDS011;57489;37.404;24.920;2023-07-20T20:41:06;11.20;;;7.20;;
70122;SDS011;57489;37.404;24.920;2023-07-20T20:46:08;10.70;;;5.60;;
70122;SDS011;57489;37.404;24.920;2023-07-20T20:51:09;9.17;;;5.13;;
70122;SDS011;57489;37.404;24.920;2023-07-20T20:56:09;10.57;;;4.77;;
70122;SDS011;57489;37.404;24.920;2023-07-20T21:01:10;11.85;;;5.53;;
70122;SDS011;57489;37.404;24.920;2023-07-20T21:06:11;8.30;;;5.20;;
70122;SDS011;57489;37.404;24.920;2023-07-20T21:11:11;12.10;;;4.73;;
70122;SDS011;57489;37.404;24.920;2023-07-20T21:16:12;9.43;;;4.60;;
70122;SDS011;57489;37.404;24.920;2023-07-20T21:21:12;14.10;;;4.33;;
70122;SDS011;57489;37.404;24.920;2023-07-20T21:26:13;9.57;;;4.17;;
70122;SDS011;57489;37.404;24.920;2023-07-20T21:31:14;9.00;;;4.13;;
70122;SDS011;57489;37.404;24.920;2023-07-20T21:36:14;8.17;;;4.27;;
70122;SDS011;57489;37.404;24.920;2023-07-20T21:41:15;7.80;;;3.58;;
70122;SDS011;57489;37.404;24.920;2023-07-20T21:46:16;6.20;;;3.60;;
70122;SDS011;57489;37.404;24.920;2023-07-20T21:51:17;10.80;;;3.70;;
70122;SDS011;57489;37.404;24.920;2023-07-20T21:56:17;6.43;;;3.23;;
70122;SDS011;57489;37.404;24.920;2023-07-20T22:01:18;7.57;;;3.67;;
70122;SDS011;57489;37.404;24.920;2023-07-20T22:06:18;7.93;;;4.13;;
70122;SDS011;57489;37.404;24.920;2023-07-20T22:11:19;9.15;;;3.38;;
70122;SDS011;57489;37.404;24.920;2023-07-20T22:16:20;7.00;;;3.67;;
70122;SDS011;57489;37.404;24.920;2023-07-20T22:21:20;7.37;;;3.20;;
70122;SDS011;57489;37.404;24.920;2023-07-20T22:26:21;8.77;;;4.25;;
70122;SDS011;57489;37.404;24.920;2023-07-20T22:31:21;6.83;;;3.50;;
70122;SDS011;57489;37.404;24.920;2023-07-20T22:36:22;5.90;;;2.97;;
70122;SDS011;57489;37.404;24.920;2023-07-20T22:41:22;7.77;;;3.63;;
70122;SDS011;57489;37.404;24.920;2023-07-20T22:46:23;7.43;;;3.57;;
70122;SDS011;57489;37.404;24.920;2023-07-20T22:51:23;6.57;;;3.77;;
70122;SDS011;57489;37.404;24.920;2023-07-20T22:56:24;8.97;;;3.83;;
70122;SDS011;57489;37.404;24.920;2023-07-20T23:01:24;8.77;;;3.30;;
70122;SDS011;57489;37.404;24.920;2023-07-20T23:06:25;6.55;;;3.45;;
70122;SDS011;57489;37.404;24.920;2023-07-20T23:11:25;7.00;;;3.20;;
70122;SDS011;57489;37.404;24.920;2023-07-20T23:16:26;6.80;;;3.70;;
70122;SDS011;57489;37.404;24.920;2023-07-20T23:21:26;7.17;;;3.67;;
70122;SDS011;57489;37.404;24.920;2023-07-20T23:26:27;8.00;;;3.60;;
70122;SDS011;57489;37.404;24.920;2023-07-20T23:31:27;8.23;;;3.10;;
70122;SDS011;57489;37.404;24.920;2023-07-20T23:36:28;6.37;;;3.13;;
70122;SDS011;57489;37.404;24.920;2023-07-20T23:41:28;7.60;;;3.70;;
70122;SDS011;57489;37.404;24.920;2023-07-20T23:46:29;5.95;;;3.10;;
70122;SDS011;57489;37.404;24.920;2023-07-20T23:51:29;7.83;;;3.63;;
70122;SDS011;57489;37.404;24.920;2023-07-20T23:56:30;7.40;;;3.70;;
